sensor_id;sensor_type;location;lat;lon;timestamp;pressure;altitude;pressure_sealevel;temperature;humidity
70555;BME280;58104;52.744;15.242;2023-06-10T00:00:57;100893.67;;;24.92;43.40
70555;BME280;58104;52.744;15.242;2023-06-10T00:03:22;100894.16;;;24.90;43.50
70555;BME280;58104;52.744;15.242;2023-06-10T00:05:48;100897.96;;;24.86;43.38
70555;BME280;58104;52.744;15.242;2023-06-10T00:08:13;100897.43;;;24.84;43.43
70555;BME280;58104;52.744;15.242;2023-06-10T00:10:38;100895.63;;;24.74;43.71
70555;BME280;58104;52.744;15.242;2023-06-10T00:13:04;100894.45;;;24.69;43.86
70555;BME280;58104;52.744;15.242;2023-06-10T00:15:30;100895.07;;;24.70;43.93
70555;BME280;58104;52.744;15.242;2023-06-10T00:17:54;100895.15;;;24.78;43.96
70555;BME280;58104;52.744;15.242;2023-06-10T00:20:20;100898.54;;;24.72;43.94
70555;BME280;58104;52.744;15.242;2023-06-10T00:22:46;100898.32;;;24.78;43.75
70555;BME280;58104;52.744;15.242;2023-06-10T00:25:11;100896.63;;;24.76;43.92
70555;BME280;58104;52.744;15.242;2023-06-10T00:27:37;100896.49;;;24.83;43.91
70555;BME280;58104;52.744;15.242;2023-06-10T00:30:03;100892.86;;;24.67;44.01
70555;BME280;58104;52.744;15.242;2023-06-10T00:32:28;100891.42;;;24.73;43.80
70555;BME280;58104;52.744;15.242;2023-06-10T00:34:53;100892.88;;;24.56;44.33
70555;BME280;58104;52.744;15.242;2023-06-10T00:37:19;100889.82;;;24.51;44.43
70555;BME280;58104;52.744;15.242;2023-06-10T00:39:44;100888.81;;;24.41;44.47
70555;BME280;58104;52.744;15.242;2023-06-10T00:42:10;100890.78;;;24.51;44.29
70555;BME280;58104;52.744;15.242;2023-06-10T00:44:35;100891.82;;;24.55;44.16
70555;BME280;58104;52.744;15.242;2023-06-10T00:47:00;100892.27;;;24.49;44.29
70555;BME280;58104;52.744;15.242;2023-06-10T00:49:26;100892.33;;;24.56;44.16
70555;BME280;58104;52.744;15.242;2023-06-10T00:51:52;100892.27;;;24.56;44.01
70555;BME280;58104;52.744;15.242;2023-06-10T00:54:17;100895.59;;;24.49;44.06
70555;BME280;58104;52.744;15.242;2023-06-10T00:56:42;100895.67;;;24.37;44.35
70555;BME280;58104;52.744;15.242;2023-06-10T00:59:07;100897.61;;;24.47;44.16
70555;BME280;58104;52.744;15.242;2023-06-10T01:01:33;100895.76;;;24.34;44.40
70555;BME280;58104;52.744;15.242;2023-06-10T01:03:58;100897.69;;;24.30;44.45
70555;BME280;58104;52.744;15.242;2023-06-10T01:06:31;100895.62;;;24.25;44.57
70555;BME280;58104;52.744;15.242;2023-06-10T01:08:55;100895.39;;;24.38;44.28
70555;BME280;58104;52.744;15.242;2023-06-10T01:11:19;100894.71;;;24.46;44.01
70555;BME280;58104;52.744;15.242;2023-06-10T01:13:41;100899.49;;;24.44;44.10
70555;BME280;58104;52.744;15.242;2023-06-10T01:16:05;100899.42;;;24.32;44.30
70555;BME280;58104;52.744;15.242;2023-06-10T01:18:31;100901.50;;;24.29;44.28
70555;BME280;58104;52.744;15.242;2023-06-10T01:20:56;100902.24;;;24.41;43.79
70555;BME280;58104;52.744;15.242;2023-06-10T01:23:22;100904.52;;;24.55;43.65
70555;BME280;58104;52.744;15.242;2023-06-10T01:25:51;100902.33;;;24.31;44.20
70555;BME280;58104;52.744;15.242;2023-06-10T01:28:15;100903.66;;;24.33;44.15
70555;BME280;58104;52.744;15.242;2023-06-10T01:30:43;100902.14;;;24.30;44.14
70555;BME280;58104;52.744;15.242;2023-06-10T01:33:06;100905.89;;;24.18;44.45
70555;BME280;58104;52.744;15.242;2023-06-10T01:35:30;100906.79;;;24.18;44.43
70555;BME280;58104;52.744;15.242;2023-06-10T01:37:57;100905.70;;;24.11;44.64
70555;BME280;58104;52.744;15.242;2023-06-10T01:40:20;100907.26;;;24.13;44.71
70555;BME280;58104;52.744;15.242;2023-06-10T01:42:46;100913.77;;;24.11;44.62
70555;BME280;58104;52.744;15.242;2023-06-10T01:45:11;100917.17;;;24.12;44.53
70555;BME280;58104;52.744;15.242;2023-06-10T01:47:36;100913.76;;;24.08;44.63
70555;BME280;58104;52.744;15.242;2023-06-10T01:50:01;100915.23;;;24.03;44.57
70555;BME280;58104;52.744;15.242;2023-06-10T01:52:26;100920.16;;;24.03;44.70
70555;BME280;58104;52.744;15.242;2023-06-10T01:54:52;100921.68;;;24.11;44.63
70555;BME280;58104;52.744;15.242;2023-06-10T01:57:17;100921.26;;;24.10;44.58
70555;BME280;58104;52.744;15.242;2023-06-10T01:59:42;100922.72;;;24.06;44.49
70555;BME280;58104;52.744;15.242;2023-06-10T02:02:08;100923.65;;;24.08;44.56
70555;BME280;58104;52.744;15.242;2023-06-10T02:04:34;100925.29;;;24.05;44.62
70555;BME280;58104;52.744;15.242;2023-06-10T02:06:59;100928.10;;;24.03;44.67
70555;BME280;58104;52.744;15.242;2023-06-10T02:09:25;100927.77;;;24.03;44.56
70555;BME280;58104;52.744;15.242;2023-06-10T02:11:51;100931.43;;;24.04;44.54
70555;BME280;58104;52.744;15.242;2023-06-10T02:14:17;100929.77;;;24.20;44.13
70555;BME280;58104;52.744;15.242;2023-06-10T02:16:42;100928.99;;;24.14;44.39
70555;BME280;58104;52.744;15.242;2023-06-10T02:19:08;100930.85;;;23.97;44.51
70555;BME280;58104;52.744;15.242;2023-06-10T02:21:33;100935.86;;;24.06;44.39
70555;BME280;58104;52.744;15.242;2023-06-10T02:23:58;100937.82;;;24.11;44.02
70555;BME280;58104;52.744;15.242;2023-06-10T02:26:23;100937.61;;;24.02;44.10
70555;BME280;58104;52.744;15.242;2023-06-10T02:28:49;100939.98;;;24.08;43.90
70555;BME280;58104;52.744;15.242;2023-06-10T02:31:15;100939.44;;;24.21;43.65
70555;BME280;58104;52.744;15.242;2023-06-10T02:33:40;100938.27;;;24.11;44.01
70555;BME280;58104;52.744;15.242;2023-06-10T02:36:06;100943.24;;;24.15;43.76
70555;BME280;58104;52.744;15.242;2023-06-10T02:38:31;100944.88;;;24.08;43.95
70555;BME280;58104;52.744;15.242;2023-06-10T02:40:57;100945.62;;;24.11;43.94
70555;BME280;58104;52.744;15.242;2023-06-10T02:43:22;100944.74;;;23.96;44.21
70555;BME280;58104;52.744;15.242;2023-06-10T02:45:46;100950.85;;;23.98;44.33
70555;BME280;58104;52.744;15.242;2023-06-10T02:48:12;100950.66;;;23.77;44.37
70555;BME280;58104;52.744;15.242;2023-06-10T02:50:38;100947.92;;;23.86;44.46
70555;BME280;58104;52.744;15.242;2023-06-10T02:53:03;100949.07;;;23.85;44.28
70555;BME280;58104;52.744;15.242;2023-06-10T02:55:29;100945.10;;;23.82;44.46
70555;BME280;58104;52.744;15.242;2023-06-10T02:57:54;100945.90;;;23.86;44.51
70555;BME280;58104;52.744;15.242;2023-06-10T03:00:20;100945.12;;;23.78;44.62
70555;BME280;58104;52.744;15.242;2023-06-10T03:02:45;100948.39;;;23.85;44.61
70555;BME280;58104;52.744;15.242;2023-06-10T03:05:11;100948.53;;;23.75;44.67
70555;BME280;58104;52.744;15.242;2023-06-10T03:07:36;100947.85;;;23.73;44.66
70555;BME280;58104;52.744;15.242;2023-06-10T03:10:01;100949.46;;;23.84;44.68
70555;BME280;58104;52.744;15.242;2023-06-10T03:12:27;100951.06;;;23.79;44.78
70555;BME280;58104;52.744;15.242;2023-06-10T03:14:52;100952.76;;;23.73;44.73
70555;BME280;58104;52.744;15.242;2023-06-10T03:17:17;100953.68;;;23.81;44.71
70555;BME280;58104;52.744;15.242;2023-06-10T03:19:43;100957.00;;;23.70;44.83
70555;BME280;58104;52.744;15.242;2023-06-10T03:22:10;100955.89;;;23.65;44.89
70555;BME280;58104;52.744;15.242;2023-06-10T03:24:33;100957.32;;;23.76;44.89
70555;BME280;58104;52.744;15.242;2023-06-10T03:26:58;100959.41;;;23.72;44.64
70555;BME280;58104;52.744;15.242;2023-06-10T03:29:24;100960.94;;;23.82;44.52
70555;BME280;58104;52.744;15.242;2023-06-10T03:31:50;100962.88;;;23.74;44.61
70555;BME280;58104;52.744;15.242;2023-06-10T03:34:15;100962.69;;;23.82;44.35
70555;BME280;58104;52.744;15.242;2023-06-10T03:36:40;100962.82;;;23.83;44.36
70555;BME280;58104;52.744;15.242;2023-06-10T03:39:05;100962.09;;;23.83;44.18
70555;BME280;58104;52.744;15.242;2023-06-10T03:41:30;100961.81;;;23.92;44.22
70555;BME280;58104;52.744;15.242;2023-06-10T03:43:57;100964.41;;;23.99;43.89
70555;BME280;58104;52.744;15.242;2023-06-10T03:46:22;100960.49;;;24.25;43.32
70555;BME280;58104;52.744;15.242;2023-06-10T03:48:47;100964.46;;;24.31;42.97
70555;BME280;58104;52.744;15.242;2023-06-10T03:51:12;100964.87;;;24.22;43.14
70555;BME280;58104;52.744;15.242;2023-06-10T03:53:38;100966.03;;;24.32;42.72
70555;BME280;58104;52.744;15.242;2023-06-10T03:56:04;100967.89;;;24.21;42.92
70555;BME280;58104;52.744;15.242;2023-06-10T03:58:29;100974.03;;;24.22;42.75
70555;BME280;58104;52.744;15.242;2023-06-10T04:00:54;100973.05;;;24.31;42.40
70555;BME280;58104;52.744;15.242;2023-06-10T04:03:20;100976.60;;;24.32;42.29
70555;BME280;58104;52.744;15.242;2023-06-10T04:05:45;100978.22;;;24.33;42.21
70555;BME280;58104;52.744;15.242;2023-06-10T04:08:10;100981.07;;;24.43;42.08
70555;BME280;58104;52.744;15.242;2023-06-10T04:10:35;100980.21;;;24.35;42.39
70555;BME280;58104;52.744;15.242;2023-06-10T04:13:01;100985.07;;;24.08;42.94
70555;BME280;58104;52.744;15.242;2023-06-10T04:15:27;100985.41;;;24.07;42.83
70555;BME280;58104;52.744;15.242;2023-06-10T04:17:52;100985.99;;;24.29;42.45
70555;BME280;58104;52.744;15.242;2023-06-10T04:20:18;100990.41;;;24.21;42.42
70555;BME280;58104;52.744;15.242;2023-06-10T04:22:43;100993.42;;;24.18;42.44
70555;BME280;58104;52.744;15.242;2023-06-10T04:25:09;100993.41;;;24.16;42.32
70555;BME280;58104;52.744;15.242;2023-06-10T04:27:34;100995.81;;;24.30;42.26
70555;BME280;58104;52.744;15.242;2023-06-10T04:29:59;100993.60;;;24.11;42.38
70555;BME280;58104;52.744;15.242;2023-06-10T04:32:25;100992.65;;;24.26;42.35
70555;BME280;58104;52.744;15.242;2023-06-10T04:34:50;100992.32;;;24.16;42.46
70555;BME280;58104;52.744;15.242;2023-06-10T04:37:15;100988.70;;;24.18;42.40
70555;BME280;58104;52.744;15.242;2023-06-10T04:39:41;100993.85;;;24.24;42.41
70555;BME280;58104;52.744;15.242;2023-06-10T04:42:07;100985.06;;;24.21;42.53
70555;BME280;58104;52.744;15.242;2023-06-10T04:44:32;100992.58;;;24.14;42.37
70555;BME280;58104;52.744;15.242;2023-06-10T04:46:57;100991.18;;;24.28;42.26
70555;BME280;58104;52.744;15.242;2023-06-10T04:49:23;100992.16;;;24.35;42.07
70555;BME280;58104;52.744;15.242;2023-06-10T04:51:48;100995.81;;;24.61;41.66
70555;BME280;58104;52.744;15.242;2023-06-10T04:54:13;100997.33;;;24.62;41.66
70555;BME280;58104;52.744;15.242;2023-06-10T04:56:38;101002.03;;;24.59;41.52
70555;BME280;58104;52.744;15.242;2023-06-10T04:59:03;101007.25;;;24.62;41.45
70555;BME280;58104;52.744;15.242;2023-06-10T05:01:28;101011.73;;;24.61;41.39
70555;BME280;58104;52.744;15.242;2023-06-10T05:03:54;101012.33;;;24.62;41.40
70555;BME280;58104;52.744;15.242;2023-06-10T05:06:19;101016.09;;;24.65;41.43
70555;BME280;58104;52.744;15.242;2023-06-10T05:08:45;101015.37;;;24.58;41.72
70555;BME280;58104;52.744;15.242;2023-06-10T05:11:10;101010.71;;;24.48;41.96
70555;BME280;58104;52.744;15.242;2023-06-10T05:13:35;101018.34;;;24.62;41.50
70555;BME280;58104;52.744;15.242;2023-06-10T05:16:01;101021.33;;;24.77;41.10
70555;BME280;58104;52.744;15.242;2023-06-10T05:18:26;101021.76;;;24.76;41.41
70555;BME280;58104;52.744;15.242;2023-06-10T05:20:51;101026.71;;;24.77;41.28
70555;BME280;58104;52.744;15.242;2023-06-10T05:23:17;101027.84;;;24.73;41.39
70555;BME280;58104;52.744;15.242;2023-06-10T05:25:42;101033.06;;;24.75;41.34
70555;BME280;58104;52.744;15.242;2023-06-10T05:28:07;101034.64;;;24.68;41.30
70555;BME280;58104;52.744;15.242;2023-06-10T05:30:32;101032.72;;;24.83;41.20
70555;BME280;58104;52.744;15.242;2023-06-10T05:32:58;101029.68;;;24.79;41.00
70555;BME280;58104;52.744;15.242;2023-06-10T05:35:23;101029.94;;;24.87;40.91
70555;BME280;58104;52.744;15.242;2023-06-10T05:37:48;101030.79;;;25.07;40.64
70555;BME280;58104;52.744;15.242;2023-06-10T05:40:13;101030.18;;;24.97;40.43
70555;BME280;58104;52.744;15.242;2023-06-10T05:42:39;101034.70;;;25.13;40.13
70555;BME280;58104;52.744;15.242;2023-06-10T05:45:06;101034.19;;;25.16;40.25
70555;BME280;58104;52.744;15.242;2023-06-10T05:47:30;101037.94;;;25.11;40.01
70555;BME280;58104;52.744;15.242;2023-06-10T05:49:55;101042.09;;;25.19;40.00
70555;BME280;58104;52.744;15.242;2023-06-10T05:52:21;101046.29;;;25.16;40.02
70555;BME280;58104;52.744;15.242;2023-06-10T05:54:46;101052.73;;;25.26;39.76
70555;BME280;58104;52.744;15.242;2023-06-10T05:57:12;101052.71;;;25.41;39.55
70555;BME280;58104;52.744;15.242;2023-06-10T05:59:37;101049.38;;;25.42;39.55
70555;BME280;58104;52.744;15.242;2023-06-10T06:02:02;101053.44;;;25.59;39.11
70555;BME280;58104;52.744;15.242;2023-06-10T06:04:27;101052.59;;;25.51;39.51
70555;BME280;58104;52.744;15.242;2023-06-10T06:06:52;101050.69;;;25.29;39.24
70555;BME280;58104;52.744;15.242;2023-06-10T06:09:17;101046.45;;;25.17;38.79
70555;BME280;58104;52.744;15.242;2023-06-10T06:11:42;101048.52;;;25.04;39.30
70555;BME280;58104;52.744;15.242;2023-06-10T06:14:08;101047.78;;;25.06;39.44
70555;BME280;58104;52.744;15.242;2023-06-10T06:16:33;101046.51;;;24.99;39.34
70555;BME280;58104;52.744;15.242;2023-06-10T06:18:59;101051.66;;;25.17;38.51
70555;BME280;58104;52.744;15.242;2023-06-10T06:21:24;101049.81;;;25.09;39.46
70555;BME280;58104;52.744;15.242;2023-06-10T06:23:49;101047.19;;;25.45;38.84
70555;BME280;58104;52.744;15.242;2023-06-10T06:26:15;101048.35;;;25.29;39.04
70555;BME280;58104;52.744;15.242;2023-06-10T06:28:40;101048.99;;;25.37;39.04
70555;BME280;58104;52.744;15.242;2023-06-10T06:31:07;101053.80;;;25.40;38.79
70555;BME280;58104;52.744;15.242;2023-06-10T06:33:31;101060.33;;;25.23;38.78
70555;BME280;58104;52.744;15.242;2023-06-10T06:35:56;101060.94;;;25.53;38.48
70555;BME280;58104;52.744;15.242;2023-06-10T06:38:21;101071.37;;;25.40;37.99
70555;BME280;58104;52.744;15.242;2023-06-10T06:40:47;101070.75;;;25.09;38.89
70555;BME280;58104;52.744;15.242;2023-06-10T06:43:12;101070.16;;;25.32;38.52
70555;BME280;58104;52.744;15.242;2023-06-10T06:45:37;101073.20;;;25.44;38.53
70555;BME280;58104;52.744;15.242;2023-06-10T06:48:04;101083.06;;;25.41;38.29
70555;BME280;58104;52.744;15.242;2023-06-10T06:50:28;101087.48;;;25.44;38.59
70555;BME280;58104;52.744;15.242;2023-06-10T06:52:54;101087.68;;;25.56;38.16
70555;BME280;58104;52.744;15.242;2023-06-10T06:55:19;101089.36;;;25.43;38.61
70555;BME280;58104;52.744;15.242;2023-06-10T06:57:44;101092.93;;;25.42;38.61
70555;BME280;58104;52.744;15.242;2023-06-10T07:00:10;101094.05;;;25.41;38.67
70555;BME280;58104;52.744;15.242;2023-06-10T07:02:36;101092.66;;;25.45;38.86
70555;BME280;58104;52.744;15.242;2023-06-10T07:05:01;101095.68;;;25.59;38.33
70555;BME280;58104;52.744;15.242;2023-06-10T07:07:26;101090.81;;;25.58;38.42
70555;BME280;58104;52.744;15.242;2023-06-10T07:09:52;101101.20;;;25.60;38.48
70555;BME280;58104;52.744;15.242;2023-06-10T07:12:16;101099.86;;;25.54;38.66
70555;BME280;58104;52.744;15.242;2023-06-10T07:14:42;101105.42;;;25.56;38.36
70555;BME280;58104;52.744;15.242;2023-06-10T07:17:07;101099.16;;;25.48;38.67
70555;BME280;58104;52.744;15.242;2023-06-10T07:19:32;101095.47;;;25.48;38.49
70555;BME280;58104;52.744;15.242;2023-06-10T07:21:58;101089.02;;;25.55;39.08
70555;BME280;58104;52.744;15.242;2023-06-10T07:24:23;101092.15;;;25.78;38.76
70555;BME280;58104;52.744;15.242;2023-06-10T07:26:48;101093.28;;;25.89;38.60
70555;BME280;58104;52.744;15.242;2023-06-10T07:29:13;101096.03;;;26.15;38.38
70555;BME280;58104;52.744;15.242;2023-06-10T07:31:41;101093.22;;;25.98;38.56
70555;BME280;58104;52.744;15.242;2023-06-10T07:34:04;101098.49;;;25.95;38.94
70555;BME280;58104;52.744;15.242;2023-06-10T07:36:30;101097.84;;;25.91;39.22
70555;BME280;58104;52.744;15.242;2023-06-10T07:38:56;101103.55;;;26.00;39.03
70555;BME280;58104;52.744;15.242;2023-06-10T07:41:23;101111.81;;;26.31;38.55
70555;BME280;58104;52.744;15.242;2023-06-10T07:43:47;101114.02;;;26.16;39.00
70555;BME280;58104;52.744;15.242;2023-06-10T07:46:12;101110.49;;;26.12;38.98
70555;BME280;58104;52.744;15.242;2023-06-10T07:48:37;101121.62;;;26.21;38.39
70555;BME280;58104;52.744;15.242;2023-06-10T07:51:03;101120.99;;;26.06;38.98
70555;BME280;58104;52.744;15.242;2023-06-10T07:53:28;101121.92;;;26.15;38.73
70555;BME280;58104;52.744;15.242;2023-06-10T07:55:54;101122.20;;;25.93;38.56
70555;BME280;58104;52.744;15.242;2023-06-10T07:58:19;101127.31;;;26.17;38.59
70555;BME280;58104;52.744;15.242;2023-06-10T08:00:45;101128.94;;;26.25;38.39
70555;BME280;58104;52.744;15.242;2023-06-10T08:03:10;101124.75;;;26.21;38.51
70555;BME280;58104;52.744;15.242;2023-06-10T08:05:35;101128.50;;;26.32;37.73
70555;BME280;58104;52.744;15.242;2023-06-10T08:08:00;101117.93;;;26.03;38.48
70555;BME280;58104;52.744;15.242;2023-06-10T08:10:25;101120.31;;;25.98;38.50
70555;BME280;58104;52.744;15.242;2023-06-10T08:12:51;101121.12;;;26.13;38.50
70555;BME280;58104;52.744;15.242;2023-06-10T08:15:16;101124.10;;;26.17;38.54
70555;BME280;58104;52.744;15.242;2023-06-10T08:17:42;101119.04;;;26.12;38.22
70555;BME280;58104;52.744;15.242;2023-06-10T08:20:08;101125.03;;;26.06;38.39
70555;BME280;58104;52.744;15.242;2023-06-10T08:22:33;101130.68;;;26.20;38.15
70555;BME280;58104;52.744;15.242;2023-06-10T08:24:58;101129.87;;;25.98;38.32
70555;BME280;58104;52.744;15.242;2023-06-10T08:27:23;101133.20;;;26.08;38.35
70555;BME280;58104;52.744;15.242;2023-06-10T08:29:49;101137.15;;;26.07;38.56
70555;BME280;58104;52.744;15.242;2023-06-10T08:32:15;101144.48;;;26.40;37.89
70555;BME280;58104;52.744;15.242;2023-06-10T08:34:40;101149.02;;;26.50;38.16
70555;BME280;58104;52.744;15.242;2023-06-10T08:37:06;101149.00;;;26.44;38.16
70555;BME280;58104;52.744;15.242;2023-06-10T08:39:31;101148.34;;;26.45;38.38
70555;BME280;58104;52.744;15.242;2023-06-10T08:42:03;101161.68;;;26.60;37.21
70555;BME280;58104;52.744;15.242;2023-06-10T08:44:27;101159.34;;;25.96;38.52
70555;BME280;58104;52.744;15.242;2023-06-10T08:46:48;101157.91;;;25.92;38.69
70555;BME280;58104;52.744;15.242;2023-06-10T08:49:18;101162.98;;;26.13;37.95
70555;BME280;58104;52.744;15.242;2023-06-10T08:51:40;101161.82;;;26.20;37.94
70555;BME280;58104;52.744;15.242;2023-06-10T08:54:18;101161.13;;;26.20;37.77
70555;BME280;58104;52.744;15.242;2023-06-10T08:56:29;101163.34;;;26.32;38.03
70555;BME280;58104;52.744;15.242;2023-06-10T08:58:54;101163.45;;;26.48;38.10
70555;BME280;58104;52.744;15.242;2023-06-10T09:01:20;101160.42;;;26.52;38.07
70555;BME280;58104;52.744;15.242;2023-06-10T09:03:45;101165.09;;;26.54;37.87
70555;BME280;58104;52.744;15.242;2023-06-10T09:06:10;101166.98;;;26.50;38.11
70555;BME280;58104;52.744;15.242;2023-06-10T09:08:36;101164.99;;;26.58;38.15
70555;BME280;58104;52.744;15.242;2023-06-10T09:11:01;101159.48;;;26.50;37.96
70555;BME280;58104;52.744;15.242;2023-06-10T09:13:26;101161.40;;;26.76;37.65
70555;BME280;58104;52.744;15.242;2023-06-10T09:15:51;101162.49;;;26.66;37.73
70555;BME280;58104;52.744;15.242;2023-06-10T09:18:17;101162.73;;;26.35;38.20
70555;BME280;58104;52.744;15.242;2023-06-10T09:20:43;101163.66;;;26.17;38.28
70555;BME280;58104;52.744;15.242;2023-06-10T09:23:08;101161.29;;;26.25;38.28
70555;BME280;58104;52.744;15.242;2023-06-10T09:25:36;101165.67;;;26.76;37.41
70555;BME280;58104;52.744;15.242;2023-06-10T09:27:59;101165.30;;;26.18;36.99
70555;BME280;58104;52.744;15.242;2023-06-10T09:30:25;101166.36;;;26.32;36.58
70555;BME280;58104;52.744;15.242;2023-06-10T09:32:50;101168.24;;;26.75;36.39
70555;BME280;58104;52.744;15.242;2023-06-10T09:35:15;101165.84;;;26.52;35.74
70555;BME280;58104;52.744;15.242;2023-06-10T09:37:41;101166.11;;;26.53;35.24
70555;BME280;58104;52.744;15.242;2023-06-10T09:40:08;101165.02;;;26.48;35.56
70555;BME280;58104;52.744;15.242;2023-06-10T09:42:33;101172.17;;;27.00;35.25
70555;BME280;58104;52.744;15.242;2023-06-10T09:44:57;101159.82;;;26.78;34.85
70555;BME280;58104;52.744;15.242;2023-06-10T09:47:22;101166.15;;;27.12;34.45
70555;BME280;58104;52.744;15.242;2023-06-10T09:49:47;101170.54;;;26.78;33.81
70555;BME280;58104;52.744;15.242;2023-06-10T09:52:13;101166.38;;;27.16;34.32
70555;BME280;58104;52.744;15.242;2023-06-10T09:54:38;101166.79;;;27.28;34.03
70555;BME280;58104;52.744;15.242;2023-06-10T09:57:07;101164.47;;;27.39;33.97
70555;BME280;58104;52.744;15.242;2023-06-10T09:59:28;101163.59;;;27.44;34.04
70555;BME280;58104;52.744;15.242;2023-06-10T10:01:55;101167.49;;;27.48;34.21
70555;BME280;58104;52.744;15.242;2023-06-10T10:04:23;101170.88;;;27.43;34.34
70555;BME280;58104;52.744;15.242;2023-06-10T10:06:44;101166.28;;;27.56;34.31
70555;BME280;58104;52.744;15.242;2023-06-10T10:09:09;101170.85;;;27.46;34.31
70555;BME280;58104;52.744;15.242;2023-06-10T10:11:35;101167.70;;;27.54;34.28
70555;BME280;58104;52.744;15.242;2023-06-10T10:14:00;101167.37;;;27.41;34.24
70555;BME280;58104;52.744;15.242;2023-06-10T10:16:30;101165.75;;;27.44;34.18
70555;BME280;58104;52.744;15.242;2023-06-10T10:18:54;101168.93;;;27.45;34.20
70555;BME280;58104;52.744;15.242;2023-06-10T10:21:22;101169.83;;;27.51;34.05
70555;BME280;58104;52.744;15.242;2023-06-10T10:23:48;101170.83;;;27.46;34.16
70555;BME280;58104;52.744;15.242;2023-06-10T10:26:10;101166.74;;;27.44;34.29
70555;BME280;58104;52.744;15.242;2023-06-10T10:28:40;101167.74;;;27.56;33.86
70555;BME280;58104;52.744;15.242;2023-06-10T10:31:07;101168.13;;;27.49;33.81
70555;BME280;58104;52.744;15.242;2023-06-10T10:33:30;101167.60;;;27.61;33.64
70555;BME280;58104;52.744;15.242;2023-06-10T10:35:48;101167.55;;;27.44;33.75
70555;BME280;58104;52.744;15.242;2023-06-10T10:38:13;101163.81;;;27.42;33.78
70555;BME280;58104;52.744;15.242;2023-06-10T10:40:39;101167.53;;;27.59;33.48
70555;BME280;58104;52.744;15.242;2023-06-10T10:43:05;101169.20;;;27.47;33.64
70555;BME280;58104;52.744;15.242;2023-06-10T10:45:29;101172.04;;;27.54;33.48
70555;BME280;58104;52.744;15.242;2023-06-10T10:47:55;101170.97;;;27.52;33.53
70555;BME280;58104;52.744;15.242;2023-06-10T10:50:21;101168.88;;;27.57;33.33
70555;BME280;58104;52.744;15.242;2023-06-10T10:52:53;101164.17;;;27.53;33.61
70555;BME280;58104;52.744;15.242;2023-06-10T10:55:13;101167.77;;;27.53;33.32
70555;BME280;58104;52.744;15.242;2023-06-10T10:57:38;101168.17;;;27.58;33.17
70555;BME280;58104;52.744;15.242;2023-06-10T11:00:01;101160.90;;;27.50;33.25
70555;BME280;58104;52.744;15.242;2023-06-10T11:02:36;101168.29;;;27.61;33.22
70555;BME280;58104;52.744;15.242;2023-06-10T11:04:52;101158.98;;;27.51;33.24
70555;BME280;58104;52.744;15.242;2023-06-10T11:07:20;101161.14;;;27.72;32.59
70555;BME280;58104;52.744;15.242;2023-06-10T11:12:08;101164.90;;;27.60;32.76
70555;BME280;58104;52.744;15.242;2023-06-10T11:14:33;101163.87;;;27.58;32.77
70555;BME280;58104;52.744;15.242;2023-06-10T11:16:59;101160.80;;;27.64;32.41
70555;BME280;58104;52.744;15.242;2023-06-10T11:19:32;101154.88;;;27.40;31.15
70555;BME280;58104;52.744;15.242;2023-06-10T11:21:58;101160.17;;;27.22;32.19
70555;BME280;58104;52.744;15.242;2023-06-10T11:24:14;101168.30;;;27.34;32.29
70555;BME280;58104;52.744;15.242;2023-06-10T11:26:44;101163.97;;;27.33;32.25
70555;BME280;58104;52.744;15.242;2023-06-10T11:29:07;101165.07;;;27.42;32.40
70555;BME280;58104;52.744;15.242;2023-06-10T11:31:31;101164.20;;;27.39;32.54
70555;BME280;58104;52.744;15.242;2023-06-10T11:33:57;101159.77;;;27.29;32.44
70555;BME280;58104;52.744;15.242;2023-06-10T11:36:21;101162.10;;;27.37;32.42
70555;BME280;58104;52.744;15.242;2023-06-10T11:38:46;101161.19;;;27.39;32.57
70555;BME280;58104;52.744;15.242;2023-06-10T11:41:12;101157.97;;;27.41;32.45
70555;BME280;58104;52.744;15.242;2023-06-10T11:43:37;101159.72;;;27.35;32.73
70555;BME280;58104;52.744;15.242;2023-06-10T11:46:03;101163.06;;;27.44;32.50
70555;BME280;58104;52.744;15.242;2023-06-10T11:48:28;101156.48;;;27.47;32.35
70555;BME280;58104;52.744;15.242;2023-06-10T11:50:53;101154.29;;;27.52;32.26
70555;BME280;58104;52.744;15.242;2023-06-10T11:53:19;101151.29;;;27.41;32.38
70555;BME280;58104;52.744;15.242;2023-06-10T11:55:45;101149.02;;;27.45;32.43
70555;BME280;58104;52.744;15.242;2023-06-10T11:58:14;101149.51;;;27.37;32.41
70555;BME280;58104;52.744;15.242;2023-06-10T12:00:35;101153.77;;;27.49;32.09
70555;BME280;58104;52.744;15.242;2023-06-10T12:03:00;101148.07;;;27.45;32.34
70555;BME280;58104;52.744;15.242;2023-06-10T12:05:26;101153.67;;;27.50;32.06
70555;BME280;58104;52.744;15.242;2023-06-10T12:10:17;101150.46;;;27.33;33.13
70555;BME280;58104;52.744;15.242;2023-06-10T12:12:42;101155.92;;;27.49;32.72
70555;BME280;58104;52.744;15.242;2023-06-10T12:15:09;101154.76;;;27.40;32.60
70555;BME280;58104;52.744;15.242;2023-06-10T12:17:37;101148.28;;;27.49;32.38
70555;BME280;58104;52.744;15.242;2023-06-10T12:19:59;101153.71;;;27.61;32.20
70555;BME280;58104;52.744;15.242;2023-06-10T12:22:23;101154.91;;;27.49;32.06
70555;BME280;58104;52.744;15.242;2023-06-10T12:24:58;101142.78;;;27.51;32.07
70555;BME280;58104;52.744;15.242;2023-06-10T12:27:13;101151.24;;;27.60;31.21
70555;BME280;58104;52.744;15.242;2023-06-10T12:29:39;101147.87;;;27.62;31.32
70555;BME280;58104;52.744;15.242;2023-06-10T12:32:05;101147.92;;;27.67;31.04
70555;BME280;58104;52.744;15.242;2023-06-10T12:34:31;101146.13;;;27.66;30.95